Terminal Aerodrome Forecast
Issued by NWS Tampa Bay Area, FL

Home | Current Version | Previous Version | Text Only | Print | Product List | Glossary On
Versions: 1 2 3 4 5 6 7 8 9 10 11 12 13 14 15 16 17 18 19 20
000
FTUS42 KTBW 061700
TAFFMY
TAF
KFMY 061734Z 0618/0718 VRB03KT P6SM SCT035
     FM062000 29008KT P6SM VCSH SCT010 BKN035
     FM070000 35012KT P6SM SCT035
     FM070400 03012KT P6SM BKN025
     FM071400 05012KT P6SM BKN035=

USA.gov is the U.S. government's official web portal to all federal, state and local government web resources and services.